sensor_id;sensor_type;location;lat;lon;timestamp;P1;durP1;ratioP1;P2;durP2;ratioP2
26594;SDS011;14238;49.496;8.154;2022-12-05T00:00:32;18.53;;;16.53;;
26594;SDS011;14238;49.496;8.154;2022-12-05T00:03:02;23.67;;;18.47;;
26594;SDS011;14238;49.496;8.154;2022-12-05T00:05:28;20.10;;;16.63;;
26594;SDS011;14238;49.496;8.154;2022-12-05T00:07:54;21.87;;;17.63;;
26594;SDS011;14238;49.496;8.154;2022-12-05T00:10:19;21.80;;;16.17;;
26594;SDS011;14238;49.496;8.154;2022-12-05T00:12:45;22.30;;;16.60;;
26594;SDS011;14238;49.496;8.154;2022-12-05T00:15:10;18.57;;;16.10;;
26594;SDS011;14238;49.496;8.154;2022-12-05T00:17:37;20.43;;;16.13;;
26594;SDS011;14238;49.496;8.154;2022-12-05T00:20:04;21.00;;;17.53;;
26594;SDS011;14238;49.496;8.154;2022-12-05T00:22:31;20.10;;;16.00;;
26594;SDS011;14238;49.496;8.154;2022-12-05T00:24:58;19.90;;;16.23;;
26594;SDS011;14238;49.496;8.154;2022-12-05T00:27:24;20.20;;;15.33;;
26594;SDS011;14238;49.496;8.154;2022-12-05T00:29:49;18.47;;;15.47;;
26594;SDS011;14238;49.496;8.154;2022-12-05T00:32:15;18.57;;;15.53;;
26594;SDS011;14238;49.496;8.154;2022-12-05T00:34:40;19.50;;;15.67;;
26594;SDS011;14238;49.496;8.154;2022-12-05T00:37:06;20.70;;;16.33;;
26594;SDS011;14238;49.496;8.154;2022-12-05T00:39:31;20.43;;;16.50;;
26594;SDS011;14238;49.496;8.154;2022-12-05T00:41:57;21.27;;;16.23;;
26594;SDS011;14238;49.496;8.154;2022-12-05T00:44:22;19.43;;;15.93;;
26594;SDS011;14238;49.496;8.154;2022-12-05T00:46:48;19.43;;;14.63;;
26594;SDS011;14238;49.496;8.154;2022-12-05T00:49:14;21.77;;;17.23;;
26594;SDS011;14238;49.496;8.154;2022-12-05T00:51:40;21.73;;;16.27;;
26594;SDS011;14238;49.496;8.154;2022-12-05T00:54:09;22.97;;;16.03;;
26594;SDS011;14238;49.496;8.154;2022-12-05T00:56:36;21.00;;;15.10;;
26594;SDS011;14238;49.496;8.154;2022-12-05T00:59:02;19.80;;;15.23;;
26594;SDS011;14238;49.496;8.154;2022-12-05T01:01:31;19.57;;;14.70;;
26594;SDS011;14238;49.496;8.154;2022-12-05T01:04:00;21.07;;;15.80;;
26594;SDS011;14238;49.496;8.154;2022-12-05T01:06:27;17.83;;;15.17;;
26594;SDS011;14238;49.496;8.154;2022-12-05T01:08:54;20.53;;;15.83;;
26594;SDS011;14238;49.496;8.154;2022-12-05T01:11:20;17.70;;;14.80;;
26594;SDS011;14238;49.496;8.154;2022-12-05T01:13:47;18.70;;;15.10;;
26594;SDS011;14238;49.496;8.154;2022-12-05T01:16:17;19.00;;;14.93;;
26594;SDS011;14238;49.496;8.154;2022-12-05T01:18:48;21.60;;;15.00;;
26594;SDS011;14238;49.496;8.154;2022-12-05T01:21:14;20.70;;;15.40;;
26594;SDS011;14238;49.496;8.154;2022-12-05T01:23:40;19.37;;;15.30;;
26594;SDS011;14238;49.496;8.154;2022-12-05T01:26:06;19.70;;;15.13;;
26594;SDS011;14238;49.496;8.154;2022-12-05T01:28:35;18.60;;;14.73;;
26594;SDS011;14238;49.496;8.154;2022-12-05T01:31:05;17.60;;;14.07;;
26594;SDS011;14238;49.496;8.154;2022-12-05T01:33:33;21.83;;;16.30;;
26594;SDS011;14238;49.496;8.154;2022-12-05T01:35:59;18.87;;;14.47;;
26594;SDS011;14238;49.496;8.154;2022-12-05T01:38:25;19.50;;;14.60;;
26594;SDS011;14238;49.496;8.154;2022-12-05T01:40:58;17.53;;;14.37;;
26594;SDS011;14238;49.496;8.154;2022-12-05T01:43:28;18.07;;;14.20;;
26594;SDS011;14238;49.496;8.154;2022-12-05T01:45:54;16.70;;;14.07;;
26594;SDS011;14238;49.496;8.154;2022-12-05T01:48:21;17.63;;;14.00;;
26594;SDS011;14238;49.496;8.154;2022-12-05T01:50:54;15.93;;;13.87;;
26594;SDS011;14238;49.496;8.154;2022-12-05T01:53:21;18.80;;;14.80;;
26594;SDS011;14238;49.496;8.154;2022-12-05T01:55:47;19.47;;;14.60;;
26594;SDS011;14238;49.496;8.154;2022-12-05T01:58:15;16.33;;;12.70;;
26594;SDS011;14238;49.496;8.154;2022-12-05T02:00:41;18.13;;;14.07;;
26594;SDS011;14238;49.496;8.154;2022-12-05T02:03:08;18.27;;;14.30;;
26594;SDS011;14238;49.496;8.154;2022-12-05T02:05:38;16.30;;;14.00;;
26594;SDS011;14238;49.496;8.154;2022-12-05T02:08:05;16.43;;;14.60;;
26594;SDS011;14238;49.496;8.154;2022-12-05T02:10:35;15.60;;;13.20;;
26594;SDS011;14238;49.496;8.154;2022-12-05T02:18:50;15.20;;;13.03;;
26594;SDS011;14238;49.496;8.154;2022-12-05T02:21:27;18.03;;;14.37;;
26594;SDS011;14238;49.496;8.154;2022-12-05T02:31:58;17.03;;;14.47;;
26594;SDS011;14238;49.496;8.154;2022-12-05T02:34:39;17.57;;;15.00;;
26594;SDS011;14238;49.496;8.154;2022-12-05T02:37:27;16.50;;;14.40;;
26594;SDS011;14238;49.496;8.154;2022-12-05T02:40:00;17.40;;;14.63;;
26594;SDS011;14238;49.496;8.154;2022-12-05T02:42:44;15.10;;;13.07;;
26594;SDS011;14238;49.496;8.154;2022-12-05T02:45:17;18.10;;;14.80;;
26594;SDS011;14238;49.496;8.154;2022-12-05T02:47:47;17.60;;;13.97;;
26594;SDS011;14238;49.496;8.154;2022-12-05T02:50:17;20.67;;;16.70;;
26594;SDS011;14238;49.496;8.154;2022-12-05T02:52:46;20.03;;;15.80;;
26594;SDS011;14238;49.496;8.154;2022-12-05T02:55:13;17.83;;;15.40;;
26594;SDS011;14238;49.496;8.154;2022-12-05T02:57:41;18.60;;;15.20;;
26594;SDS011;14238;49.496;8.154;2022-12-05T03:00:10;18.87;;;15.73;;
26594;SDS011;14238;49.496;8.154;2022-12-05T03:02:37;20.40;;;16.70;;
26594;SDS011;14238;49.496;8.154;2022-12-05T03:07:56;23.03;;;17.83;;
26594;SDS011;14238;49.496;8.154;2022-12-05T03:10:24;22.40;;;17.17;;
26594;SDS011;14238;49.496;8.154;2022-12-05T03:12:55;22.03;;;16.43;;
26594;SDS011;14238;49.496;8.154;2022-12-05T03:15:28;21.97;;;17.43;;
26594;SDS011;14238;49.496;8.154;2022-12-05T03:17:59;23.60;;;18.80;;
26594;SDS011;14238;49.496;8.154;2022-12-05T03:20:34;28.43;;;20.30;;
26594;SDS011;14238;49.496;8.154;2022-12-05T03:23:19;24.40;;;18.87;;
26594;SDS011;14238;49.496;8.154;2022-12-05T03:25:50;24.53;;;19.00;;
26594;SDS011;14238;49.496;8.154;2022-12-05T03:28:45;25.30;;;19.47;;
26594;SDS011;14238;49.496;8.154;2022-12-05T03:31:21;24.43;;;19.07;;
26594;SDS011;14238;49.496;8.154;2022-12-05T03:33:57;26.20;;;19.43;;
26594;SDS011;14238;49.496;8.154;2022-12-05T03:36:31;23.83;;;20.60;;
26594;SDS011;14238;49.496;8.154;2022-12-05T03:39:15;30.93;;;21.20;;
26594;SDS011;14238;49.496;8.154;2022-12-05T03:44:27;31.40;;;22.30;;
26594;SDS011;14238;49.496;8.154;2022-12-05T03:46:59;24.03;;;19.30;;
26594;SDS011;14238;49.496;8.154;2022-12-05T03:49:34;28.07;;;21.70;;
26594;SDS011;14238;49.496;8.154;2022-12-05T03:52:14;28.63;;;21.03;;
26594;SDS011;14238;49.496;8.154;2022-12-05T03:54:52;25.60;;;19.87;;
26594;SDS011;14238;49.496;8.154;2022-12-05T03:57:26;26.90;;;20.00;;
26594;SDS011;14238;49.496;8.154;2022-12-05T04:00:00;27.97;;;21.03;;
26594;SDS011;14238;49.496;8.154;2022-12-05T04:05:34;28.80;;;20.70;;
26594;SDS011;14238;49.496;8.154;2022-12-05T04:08:05;30.00;;;22.33;;
26594;SDS011;14238;49.496;8.154;2022-12-05T04:10:37;33.90;;;21.60;;
26594;SDS011;14238;49.496;8.154;2022-12-05T04:13:21;33.77;;;23.30;;
26594;SDS011;14238;49.496;8.154;2022-12-05T04:15:58;33.20;;;22.40;;
26594;SDS011;14238;49.496;8.154;2022-12-05T04:18:59;33.77;;;23.53;;
26594;SDS011;14238;49.496;8.154;2022-12-05T04:21:30;29.17;;;20.93;;
26594;SDS011;14238;49.496;8.154;2022-12-05T04:24:03;33.47;;;22.67;;
26594;SDS011;14238;49.496;8.154;2022-12-05T04:26:53;30.57;;;23.30;;
26594;SDS011;14238;49.496;8.154;2022-12-05T04:29:28;32.27;;;23.77;;
26594;SDS011;14238;49.496;8.154;2022-12-05T04:32:00;32.57;;;22.73;;
26594;SDS011;14238;49.496;8.154;2022-12-05T04:34:30;33.73;;;22.93;;
26594;SDS011;14238;49.496;8.154;2022-12-05T04:36:59;36.97;;;23.17;;
26594;SDS011;14238;49.496;8.154;2022-12-05T04:39:30;36.67;;;23.80;;
26594;SDS011;14238;49.496;8.154;2022-12-05T04:42:21;34.60;;;23.37;;
26594;SDS011;14238;49.496;8.154;2022-12-05T04:44:55;34.87;;;24.30;;
26594;SDS011;14238;49.496;8.154;2022-12-05T04:47:27;29.60;;;22.70;;
26594;SDS011;14238;49.496;8.154;2022-12-05T04:49:56;33.80;;;23.40;;
26594;SDS011;14238;49.496;8.154;2022-12-05T04:52:24;40.93;;;25.13;;
26594;SDS011;14238;49.496;8.154;2022-12-05T04:54:53;29.73;;;21.33;;
26594;SDS011;14238;49.496;8.154;2022-12-05T04:57:34;31.60;;;23.23;;
26594;SDS011;14238;49.496;8.154;2022-12-05T05:00:04;32.20;;;23.03;;
26594;SDS011;14238;49.496;8.154;2022-12-05T05:02:32;34.90;;;22.87;;
26594;SDS011;14238;49.496;8.154;2022-12-05T05:05:05;37.10;;;23.67;;
26594;SDS011;14238;49.496;8.154;2022-12-05T05:07:42;31.53;;;22.87;;
26594;SDS011;14238;49.496;8.154;2022-12-05T05:10:10;32.70;;;23.20;;
26594;SDS011;14238;49.496;8.154;2022-12-05T05:12:36;32.50;;;23.40;;
26594;SDS011;14238;49.496;8.154;2022-12-05T05:15:02;33.73;;;22.47;;
26594;SDS011;14238;49.496;8.154;2022-12-05T05:17:28;35.83;;;23.50;;
26594;SDS011;14238;49.496;8.154;2022-12-05T05:19:53;34.60;;;22.60;;
26594;SDS011;14238;49.496;8.154;2022-12-05T05:22:39;35.50;;;24.70;;
26594;SDS011;14238;49.496;8.154;2022-12-05T05:25:04;38.77;;;23.93;;
26594;SDS011;14238;49.496;8.154;2022-12-05T05:27:30;35.10;;;22.23;;
26594;SDS011;14238;49.496;8.154;2022-12-05T05:29:55;44.30;;;25.73;;
26594;SDS011;14238;49.496;8.154;2022-12-05T05:32:21;52.93;;;26.00;;
26594;SDS011;14238;49.496;8.154;2022-12-05T05:34:47;43.30;;;24.97;;
26594;SDS011;14238;49.496;8.154;2022-12-05T05:37:12;37.63;;;24.87;;
26594;SDS011;14238;49.496;8.154;2022-12-05T05:39:38;37.33;;;23.87;;
26594;SDS011;14238;49.496;8.154;2022-12-05T05:42:03;35.90;;;23.80;;
26594;SDS011;14238;49.496;8.154;2022-12-05T05:44:29;40.17;;;24.23;;
26594;SDS011;14238;49.496;8.154;2022-12-05T05:46:54;36.70;;;24.03;;
26594;SDS011;14238;49.496;8.154;2022-12-05T05:49:20;32.63;;;22.23;;
26594;SDS011;14238;49.496;8.154;2022-12-05T05:51:46;59.10;;;25.63;;
26594;SDS011;14238;49.496;8.154;2022-12-05T05:54:11;45.17;;;24.30;;
26594;SDS011;14238;49.496;8.154;2022-12-05T05:56:37;58.03;;;28.07;;
26594;SDS011;14238;49.496;8.154;2022-12-05T05:59:03;43.50;;;26.80;;
26594;SDS011;14238;49.496;8.154;2022-12-05T06:01:29;53.03;;;25.67;;
26594;SDS011;14238;49.496;8.154;2022-12-05T06:03:55;59.00;;;26.70;;
26594;SDS011;14238;49.496;8.154;2022-12-05T06:06:21;100.90;;;31.57;;
26594;SDS011;14238;49.496;8.154;2022-12-05T06:08:47;87.93;;;29.10;;
26594;SDS011;14238;49.496;8.154;2022-12-05T06:11:13;100.03;;;30.77;;
26594;SDS011;14238;49.496;8.154;2022-12-05T06:13:42;104.93;;;31.30;;
26594;SDS011;14238;49.496;8.154;2022-12-05T06:16:08;152.10;;;33.33;;
26594;SDS011;14238;49.496;8.154;2022-12-05T06:18:36;109.47;;;36.07;;
26594;SDS011;14238;49.496;8.154;2022-12-05T06:21:02;127.80;;;34.47;;
26594;SDS011;14238;49.496;8.154;2022-12-05T06:23:29;94.60;;;28.53;;
26594;SDS011;14238;49.496;8.154;2022-12-05T06:25:55;186.90;;;34.33;;
26594;SDS011;14238;49.496;8.154;2022-12-05T06:28:21;76.40;;;26.53;;
26594;SDS011;14238;49.496;8.154;2022-12-05T06:30:48;74.27;;;26.60;;
26594;SDS011;14238;49.496;8.154;2022-12-05T06:33:13;69.70;;;27.00;;
26594;SDS011;14238;49.496;8.154;2022-12-05T06:35:39;49.53;;;27.57;;
26594;SDS011;14238;49.496;8.154;2022-12-05T06:38:05;191.17;;;37.33;;
26594;SDS011;14238;49.496;8.154;2022-12-05T06:40:31;107.13;;;33.13;;
26594;SDS011;14238;49.496;8.154;2022-12-05T06:42:58;65.40;;;25.40;;
26594;SDS011;14238;49.496;8.154;2022-12-05T06:45:23;142.13;;;33.20;;
26594;SDS011;14238;49.496;8.154;2022-12-05T06:47:50;73.23;;;27.00;;
26594;SDS011;14238;49.496;8.154;2022-12-05T06:50:16;72.97;;;27.97;;
26594;SDS011;14238;49.496;8.154;2022-12-05T06:52:42;123.83;;;30.47;;
26594;SDS011;14238;49.496;8.154;2022-12-05T06:55:08;94.57;;;29.23;;
26594;SDS011;14238;49.496;8.154;2022-12-05T06:57:34;118.13;;;30.53;;
26594;SDS011;14238;49.496;8.154;2022-12-05T07:00:00;128.57;;;33.10;;
26594;SDS011;14238;49.496;8.154;2022-12-05T07:02:44;112.67;;;30.07;;
26594;SDS011;14238;49.496;8.154;2022-12-05T07:05:10;144.40;;;34.67;;
26594;SDS011;14238;49.496;8.154;2022-12-05T07:07:36;76.07;;;28.13;;
26594;SDS011;14238;49.496;8.154;2022-12-05T07:10:02;171.00;;;38.17;;
26594;SDS011;14238;49.496;8.154;2022-12-05T07:12:29;119.67;;;35.17;;
26594;SDS011;14238;49.496;8.154;2022-12-05T07:14:57;105.17;;;34.77;;
26594;SDS011;14238;49.496;8.154;2022-12-05T07:17:22;102.43;;;33.17;;
26594;SDS011;14238;49.496;8.154;2022-12-05T07:19:48;100.77;;;31.67;;
26594;SDS011;14238;49.496;8.154;2022-12-05T07:22:19;132.67;;;35.83;;
26594;SDS011;14238;49.496;8.154;2022-12-05T07:24:45;60.67;;;26.70;;
26594;SDS011;14238;49.496;8.154;2022-12-05T07:27:11;61.70;;;27.27;;
26594;SDS011;14238;49.496;8.154;2022-12-05T07:29:37;37.93;;;23.40;;
26594;SDS011;14238;49.496;8.154;2022-12-05T07:32:03;37.80;;;23.17;;
26594;SDS011;14238;49.496;8.154;2022-12-05T07:34:29;48.23;;;24.80;;
26594;SDS011;14238;49.496;8.154;2022-12-05T07:36:54;62.93;;;26.20;;
26594;SDS011;14238;49.496;8.154;2022-12-05T07:39:20;43.23;;;26.40;;
26594;SDS011;14238;49.496;8.154;2022-12-05T07:41:46;38.57;;;24.97;;
26594;SDS011;14238;49.496;8.154;2022-12-05T07:44:11;48.87;;;27.13;;
26594;SDS011;14238;49.496;8.154;2022-12-05T07:46:37;43.47;;;24.63;;
26594;SDS011;14238;49.496;8.154;2022-12-05T07:49:03;42.03;;;26.30;;
26594;SDS011;14238;49.496;8.154;2022-12-05T07:51:29;38.47;;;23.30;;
26594;SDS011;14238;49.496;8.154;2022-12-05T07:53:54;32.50;;;22.10;;
26594;SDS011;14238;49.496;8.154;2022-12-05T07:56:22;33.00;;;21.37;;
26594;SDS011;14238;49.496;8.154;2022-12-05T07:58:48;32.30;;;22.03;;
26594;SDS011;14238;49.496;8.154;2022-12-05T08:01:21;31.50;;;21.10;;
26594;SDS011;14238;49.496;8.154;2022-12-05T08:03:48;30.07;;;20.10;;
26594;SDS011;14238;49.496;8.154;2022-12-05T08:06:17;28.53;;;19.97;;
26594;SDS011;14238;49.496;8.154;2022-12-05T08:08:44;29.80;;;21.10;;
26594;SDS011;14238;49.496;8.154;2022-12-05T08:11:14;29.53;;;20.07;;
26594;SDS011;14238;49.496;8.154;2022-12-05T08:13:42;30.60;;;21.67;;
26594;SDS011;14238;49.496;8.154;2022-12-05T08:16:09;33.77;;;21.50;;
26594;SDS011;14238;49.496;8.154;2022-12-05T08:18:37;32.10;;;21.23;;
26594;SDS011;14238;49.496;8.154;2022-12-05T08:21:03;30.77;;;21.33;;
26594;SDS011;14238;49.496;8.154;2022-12-05T08:23:30;37.77;;;24.63;;
26594;SDS011;14238;49.496;8.154;2022-12-05T08:26:00;38.63;;;26.63;;
26594;SDS011;14238;49.496;8.154;2022-12-05T08:28:27;41.10;;;26.07;;
26594;SDS011;14238;49.496;8.154;2022-12-05T08:30:54;36.10;;;24.30;;
26594;SDS011;14238;49.496;8.154;2022-12-05T08:33:20;36.73;;;26.13;;
26594;SDS011;14238;49.496;8.154;2022-12-05T08:35:45;40.80;;;27.27;;
26594;SDS011;14238;49.496;8.154;2022-12-05T08:38:11;36.33;;;27.97;;
26594;SDS011;14238;49.496;8.154;2022-12-05T08:40:36;42.97;;;26.57;;
26594;SDS011;14238;49.496;8.154;2022-12-05T08:43:02;42.67;;;26.20;;
26594;SDS011;14238;49.496;8.154;2022-12-05T08:45:27;38.07;;;27.00;;
26594;SDS011;14238;49.496;8.154;2022-12-05T08:47:53;50.57;;;30.43;;
26594;SDS011;14238;49.496;8.154;2022-12-05T08:50:18;36.00;;;25.57;;
26594;SDS011;14238;49.496;8.154;2022-12-05T08:52:44;36.50;;;26.03;;
26594;SDS011;14238;49.496;8.154;2022-12-05T08:55:09;38.47;;;24.63;;
26594;SDS011;14238;49.496;8.154;2022-12-05T08:57:35;36.33;;;23.50;;
26594;SDS011;14238;49.496;8.154;2022-12-05T09:00:01;41.13;;;26.60;;
26594;SDS011;14238;49.496;8.154;2022-12-05T09:02:28;36.97;;;25.03;;
26594;SDS011;14238;49.496;8.154;2022-12-05T09:04:53;41.87;;;26.03;;
26594;SDS011;14238;49.496;8.154;2022-12-05T09:07:19;32.93;;;22.37;;
26594;SDS011;14238;49.496;8.154;2022-12-05T09:09:44;39.13;;;22.97;;
26594;SDS011;14238;49.496;8.154;2022-12-05T09:12:10;41.20;;;25.87;;
26594;SDS011;14238;49.496;8.154;2022-12-05T09:14:35;40.20;;;24.77;;
26594;SDS011;14238;49.496;8.154;2022-12-05T09:17:01;36.10;;;23.93;;
26594;SDS011;14238;49.496;8.154;2022-12-05T09:19:28;48.43;;;25.93;;
26594;SDS011;14238;49.496;8.154;2022-12-05T09:21:54;41.70;;;24.43;;
26594;SDS011;14238;49.496;8.154;2022-12-05T09:24:21;71.40;;;29.03;;
26594;SDS011;14238;49.496;8.154;2022-12-05T09:26:46;66.20;;;27.53;;
26594;SDS011;14238;49.496;8.154;2022-12-05T09:29:12;56.33;;;26.60;;
26594;SDS011;14238;49.496;8.154;2022-12-05T09:31:38;58.87;;;26.13;;
26594;SDS011;14238;49.496;8.154;2022-12-05T09:34:04;127.70;;;35.70;;
26594;SDS011;14238;49.496;8.154;2022-12-05T09:36:30;72.57;;;30.93;;
26594;SDS011;14238;49.496;8.154;2022-12-05T09:39:00;87.63;;;30.53;;
26594;SDS011;14238;49.496;8.154;2022-12-05T09:41:47;91.20;;;29.43;;
26594;SDS011;14238;49.496;8.154;2022-12-05T09:49:50;41.47;;;24.70;;
26594;SDS011;14238;49.496;8.154;2022-12-05T09:52:26;142.73;;;32.33;;
26594;SDS011;14238;49.496;8.154;2022-12-05T09:54:54;55.77;;;25.20;;
26594;SDS011;14238;49.496;8.154;2022-12-05T09:57:31;103.17;;;32.60;;
26594;SDS011;14238;49.496;8.154;2022-12-05T09:59:59;48.07;;;24.57;;
26594;SDS011;14238;49.496;8.154;2022-12-05T10:02:31;61.43;;;27.07;;
26594;SDS011;14238;49.496;8.154;2022-12-05T10:05:17;70.73;;;25.50;;
26594;SDS011;14238;49.496;8.154;2022-12-05T10:07:51;53.03;;;24.57;;
26594;SDS011;14238;49.496;8.154;2022-12-05T10:15:35;49.23;;;24.87;;
26594;SDS011;14238;49.496;8.154;2022-12-05T10:20:50;37.83;;;24.20;;
26594;SDS011;14238;49.496;8.154;2022-12-05T10:23:38;38.40;;;23.20;;
26594;SDS011;14238;49.496;8.154;2022-12-05T10:26:17;35.53;;;23.13;;
26594;SDS011;14238;49.496;8.154;2022-12-05T10:28:47;60.00;;;28.20;;
26594;SDS011;14238;49.496;8.154;2022-12-05T10:31:34;41.23;;;23.77;;
26594;SDS011;14238;49.496;8.154;2022-12-05T10:34:04;79.50;;;30.77;;
26594;SDS011;14238;49.496;8.154;2022-12-05T10:36:39;40.23;;;24.10;;
26594;SDS011;14238;49.496;8.154;2022-12-05T10:39:08;43.43;;;25.07;;
26594;SDS011;14238;49.496;8.154;2022-12-05T10:41:34;48.83;;;28.43;;
26594;SDS011;14238;49.496;8.154;2022-12-05T10:43:59;72.80;;;30.87;;
26594;SDS011;14238;49.496;8.154;2022-12-05T10:46:25;40.70;;;26.83;;
26594;SDS011;14238;49.496;8.154;2022-12-05T10:48:51;41.80;;;26.60;;
26594;SDS011;14238;49.496;8.154;2022-12-05T10:51:17;57.60;;;27.87;;
26594;SDS011;14238;49.496;8.154;2022-12-05T10:53:49;43.50;;;26.60;;
26594;SDS011;14238;49.496;8.154;2022-12-05T10:58:59;41.40;;;25.33;;
26594;SDS011;14238;49.496;8.154;2022-12-05T11:01:25;61.90;;;26.80;;
26594;SDS011;14238;49.496;8.154;2022-12-05T11:03:58;40.40;;;24.67;;
26594;SDS011;14238;49.496;8.154;2022-12-05T11:06:49;44.97;;;25.27;;
26594;SDS011;14238;49.496;8.154;2022-12-05T11:09:21;85.00;;;34.43;;
26594;SDS011;14238;49.496;8.154;2022-12-05T11:12:05;106.70;;;36.60;;
26594;SDS011;14238;49.496;8.154;2022-12-05T11:14:54;53.07;;;31.53;;
26594;SDS011;14238;49.496;8.154;2022-12-05T11:17:35;66.77;;;32.50;;
26594;SDS011;14238;49.496;8.154;2022-12-05T11:20:32;47.20;;;28.10;;
26594;SDS011;14238;49.496;8.154;2022-12-05T11:22:50;48.20;;;27.30;;
26594;SDS011;14238;49.496;8.154;2022-12-05T11:25:33;44.07;;;28.20;;
26594;SDS011;14238;49.496;8.154;2022-12-05T11:28:21;42.60;;;27.63;;
26594;SDS011;14238;49.496;8.154;2022-12-05T11:30:55;40.17;;;26.90;;
26594;SDS011;14238;49.496;8.154;2022-12-05T11:33:27;38.80;;;25.70;;
26594;SDS011;14238;49.496;8.154;2022-12-05T11:35:56;34.50;;;25.40;;
26594;SDS011;14238;49.496;8.154;2022-12-05T11:38:42;36.33;;;24.90;;
26594;SDS011;14238;49.496;8.154;2022-12-05T11:43:56;33.93;;;24.37;;
26594;SDS011;14238;49.496;8.154;2022-12-05T11:52:39;14.93;;;12.07;;
26594;SDS011;14238;49.496;8.154;2022-12-05T12:12:01;12.27;;;10.67;;
26594;SDS011;14238;49.496;8.154;2022-12-05T12:26:13;14.67;;;11.50;;
26594;SDS011;14238;49.496;8.154;2022-12-05T12:31:54;15.83;;;12.00;;
26594;SDS011;14238;49.496;8.154;2022-12-05T12:37:18;16.30;;;13.90;;
26594;SDS011;14238;49.496;8.154;2022-12-05T12:42:52;18.50;;;15.10;;
26594;SDS011;14238;49.496;8.154;2022-12-05T12:45:55;18.57;;;14.53;;
26594;SDS011;14238;49.496;8.154;2022-12-05T12:48:38;17.47;;;14.13;;
26594;SDS011;14238;49.496;8.154;2022-12-05T12:51:15;11.03;;;9.57;;
26594;SDS011;14238;49.496;8.154;2022-12-05T13:02:12;6.80;;;6.10;;
26594;SDS011;14238;49.496;8.154;2022-12-05T13:04:51;9.10;;;8.20;;
26594;SDS011;14238;49.496;8.154;2022-12-05T13:09:51;5.67;;;5.17;;
26594;SDS011;14238;49.496;8.154;2022-12-05T13:12:23;9.20;;;5.53;;
26594;SDS011;14238;49.496;8.154;2022-12-05T13:14:57;6.20;;;4.97;;
26594;SDS011;14238;49.496;8.154;2022-12-05T13:17:26;4.93;;;4.40;;
26594;SDS011;14238;49.496;8.154;2022-12-05T13:19:55;5.60;;;5.10;;
26594;SDS011;14238;49.496;8.154;2022-12-05T13:22:22;5.00;;;4.60;;
26594;SDS011;14238;49.496;8.154;2022-12-05T13:24:50;5.90;;;5.30;;
26594;SDS011;14238;49.496;8.154;2022-12-05T13:27:26;4.80;;;4.40;;
26594;SDS011;14238;49.496;8.154;2022-12-05T13:29:53;4.50;;;4.10;;
26594;SDS011;14238;49.496;8.154;2022-12-05T13:32:27;4.10;;;3.77;;
26594;SDS011;14238;49.496;8.154;2022-12-05T13:41:05;7.47;;;5.77;;
26594;SDS011;14238;49.496;8.154;2022-12-05T13:43:50;5.27;;;4.77;;
26594;SDS011;14238;49.496;8.154;2022-12-05T13:46:27;4.90;;;4.50;;
26594;SDS011;14238;49.496;8.154;2022-12-05T13:48:57;4.67;;;4.20;;
26594;SDS011;14238;49.496;8.154;2022-12-05T13:54:11;4.33;;;3.97;;
26594;SDS011;14238;49.496;8.154;2022-12-05T13:56:48;4.83;;;4.43;;
26594;SDS011;14238;49.496;8.154;2022-12-05T14:10:12;4.40;;;4.00;;
26594;SDS011;14238;49.496;8.154;2022-12-05T14:12:57;3.00;;;2.80;;
26594;SDS011;14238;49.496;8.154;2022-12-05T14:15:28;3.40;;;3.20;;
26594;SDS011;14238;49.496;8.154;2022-12-05T14:18:05;3.00;;;2.80;;
26594;SDS011;14238;49.496;8.154;2022-12-05T14:21:00;10.00;;;3.27;;
26594;SDS011;14238;49.496;8.154;2022-12-05T14:23:38;2.93;;;2.73;;
26594;SDS011;14238;49.496;8.154;2022-12-05T14:26:39;3.30;;;3.10;;
26594;SDS011;14238;49.496;8.154;2022-12-05T14:32:09;2.93;;;2.70;;
26594;SDS011;14238;49.496;8.154;2022-12-05T14:35:24;3.07;;;2.77;;
26594;SDS011;14238;49.496;8.154;2022-12-05T14:40:16;3.87;;;3.07;;
26594;SDS011;14238;49.496;8.154;2022-12-05T14:50:59;3.33;;;3.07;;
26594;SDS011;14238;49.496;8.154;2022-12-05T14:53:36;3.30;;;3.10;;
26594;SDS011;14238;49.496;8.154;2022-12-05T14:56:19;3.40;;;3.20;;
26594;SDS011;14238;49.496;8.154;2022-12-05T14:59:10;2.80;;;2.60;;
26594;SDS011;14238;49.496;8.154;2022-12-05T15:01:54;3.07;;;2.87;;
26594;SDS011;14238;49.496;8.154;2022-12-05T15:07:03;3.13;;;2.90;;
26594;SDS011;14238;49.496;8.154;2022-12-05T15:09:41;2.80;;;2.60;;
26594;SDS011;14238;49.496;8.154;2022-12-05T15:12:14;3.17;;;2.90;;
26594;SDS011;14238;49.496;8.154;2022-12-05T15:17:51;2.20;;;2.10;;
26594;SDS011;14238;49.496;8.154;2022-12-05T15:20:29;2.13;;;2.03;;
26594;SDS011;14238;49.496;8.154;2022-12-05T15:23:01;2.33;;;2.23;;
26594;SDS011;14238;49.496;8.154;2022-12-05T15:25:28;2.10;;;2.00;;
26594;SDS011;14238;49.496;8.154;2022-12-05T15:27:56;1.90;;;1.80;;
26594;SDS011;14238;49.496;8.154;2022-12-05T15:30:24;2.30;;;2.20;;
26594;SDS011;14238;49.496;8.154;2022-12-05T15:32:50;2.00;;;1.90;;
26594;SDS011;14238;49.496;8.154;2022-12-05T15:35:16;1.97;;;1.87;;
26594;SDS011;14238;49.496;8.154;2022-12-05T15:37:56;2.20;;;2.10;;
26594;SDS011;14238;49.496;8.154;2022-12-05T15:40:32;1.90;;;1.80;;
26594;SDS011;14238;49.496;8.154;2022-12-05T15:43:01;2.33;;;2.23;;
26594;SDS011;14238;49.496;8.154;2022-12-05T15:46:05;2.10;;;2.00;;
26594;SDS011;14238;49.496;8.154;2022-12-05T15:48:55;2.10;;;2.00;;
26594;SDS011;14238;49.496;8.154;2022-12-05T15:51:29;2.00;;;1.90;;
26594;SDS011;14238;49.496;8.154;2022-12-05T15:54:04;2.20;;;2.00;;
26594;SDS011;14238;49.496;8.154;2022-12-05T15:56:42;1.90;;;1.63;;
26594;SDS011;14238;49.496;8.154;2022-12-05T15:59:16;2.13;;;2.00;;
26594;SDS011;14238;49.496;8.154;2022-12-05T16:01:47;2.13;;;2.03;;
26594;SDS011;14238;49.496;8.154;2022-12-05T16:04:18;1.80;;;1.70;;
26594;SDS011;14238;49.496;8.154;2022-12-05T16:06:55;2.20;;;2.10;;
26594;SDS011;14238;49.496;8.154;2022-12-05T16:09:27;1.70;;;1.60;;
26594;SDS011;14238;49.496;8.154;2022-12-05T16:11:58;2.30;;;2.20;;
26594;SDS011;14238;49.496;8.154;2022-12-05T16:14:24;2.40;;;2.20;;
26594;SDS011;14238;49.496;8.154;2022-12-05T16:17:01;2.60;;;2.40;;
26594;SDS011;14238;49.496;8.154;2022-12-05T16:19:28;2.20;;;2.07;;
26594;SDS011;14238;49.496;8.154;2022-12-05T16:22:08;1.77;;;1.67;;
26594;SDS011;14238;49.496;8.154;2022-12-05T16:24:45;1.83;;;1.73;;
26594;SDS011;14238;49.496;8.154;2022-12-05T16:30:36;2.33;;;2.20;;
26594;SDS011;14238;49.496;8.154;2022-12-05T16:32:45;1.80;;;1.70;;
26594;SDS011;14238;49.496;8.154;2022-12-05T16:35:25;1.70;;;1.60;;
26594;SDS011;14238;49.496;8.154;2022-12-05T16:38:06;1.97;;;1.87;;
26594;SDS011;14238;49.496;8.154;2022-12-05T16:40:37;2.33;;;2.23;;
26594;SDS011;14238;49.496;8.154;2022-12-05T16:43:26;3.10;;;2.80;;
26594;SDS011;14238;49.496;8.154;2022-12-05T16:48:37;9.50;;;8.47;;
26594;SDS011;14238;49.496;8.154;2022-12-05T16:51:18;5.53;;;5.03;;
26594;SDS011;14238;49.496;8.154;2022-12-05T16:53:47;12.70;;;10.57;;
26594;SDS011;14238;49.496;8.154;2022-12-05T16:56:15;25.83;;;16.97;;
26594;SDS011;14238;49.496;8.154;2022-12-05T16:59:04;5.07;;;4.50;;
26594;SDS011;14238;49.496;8.154;2022-12-05T17:01:31;15.63;;;11.10;;
26594;SDS011;14238;49.496;8.154;2022-12-05T17:03:57;33.53;;;22.90;;
26594;SDS011;14238;49.496;8.154;2022-12-05T17:06:23;2.83;;;2.70;;
26594;SDS011;14238;49.496;8.154;2022-12-05T17:08:50;21.00;;;14.77;;